Time;durP1;ratioP1;P1;durP2;ratioP2;P2;SDS_P1;SDS_P2;PMS_P1;PMS_P2;Temp;Humidity;BMP_temperature;BMP_pressure;BME280_temperature;BME280_humidity;BME280_pressure;Samples;Min_cycle;Max_cycle;Signal;HPM_P1;HPM_P2
2023/01/26 00:00:59;;;;;;;89.93;44.93;;;;;;;;;;5198092;28;20026;-76
2023/01/26 00:03:30;;;;;;;90.53;42.90;;;;;;;;;;5197901;28;20417;-77
2023/01/26 00:06:05;;;;;;;88.87;42.77;;;;;;;;;;5197721;28;20359;-78
2023/01/26 00:08:40;;;;;;;82.33;40.23;;;;;;;;;;5198221;28;20018;-77
2023/01/26 00:11:13;;;;;;;81.30;42.10;;;;;;;;;;5198058;28;20484;-77
2023/01/26 00:13:45;;;;;;;76.03;38.90;;;;;;;;;;5197229;28;20156;-75
2023/01/26 00:16:16;;;;;;;79.63;38.70;;;;;;;;;;5197805;28;20097;-76
2023/01/26 00:18:47;;;;;;;76.13;39.47;;;;;;;;;;5198012;28;20091;-77
2023/01/26 00:21:20;;;;;;;80.63;41.53;;;;;;;;;;5197180;28;20018;-77
2023/01/26 00:23:51;;;;;;;74.43;38.00;;;;;;;;;;5197817;28;20026;-76
2023/01/26 00:26:23;;;;;;;73.43;38.30;;;;;;;;;;5196872;28;20018;-76
2023/01/26 00:28:55;;;;;;;78.70;41.50;;;;;;;;;;5198233;28;20080;-77
2023/01/26 00:31:26;;;;;;;74.03;38.63;;;;;;;;;;5197697;28;20062;-75
2023/01/26 00:33:58;;;;;;;73.73;38.20;;;;;;;;;;5208284;28;20023;-74
2023/01/26 00:36:29;;;;;;;75.90;39.87;;;;;;;;;;5212854;28;20022;-75
2023/01/26 00:39:01;;;;;;;72.67;37.93;;;;;;;;;;5200212;28;20385;-75
2023/01/26 00:44:22;;;;;;;76.43;40.07;;;;;;;;;;5198179;28;20114;-75
2023/01/26 00:46:53;;;;;;;68.16;38.36;;;;;;;;;;5197423;28;20113;-76
2023/01/26 00:49:24;;;;;;;74.20;36.83;;;;;;;;;;5196512;28;20093;-76
2023/01/26 00:51:55;;;;;;;72.80;40.57;;;;;;;;;;5197911;28;20503;-75
2023/01/26 00:54:27;;;;;;;69.33;37.23;;;;;;;;;;5196548;28;20046;-76
2023/01/26 00:56:58;;;;;;;71.83;38.80;;;;;;;;;;5197581;28;20050;-76
2023/01/26 00:59:31;;;;;;;70.20;37.83;;;;;;;;;;5196978;28;20069;-75
2023/01/26 01:02:02;;;;;;;69.57;38.17;;;;;;;;;;5196244;28;20038;-75
2023/01/26 01:04:33;;;;;;;69.87;37.30;;;;;;;;;;5197180;28;20095;-76
2023/01/26 01:07:04;;;;;;;64.77;36.57;;;;;;;;;;5197324;28;20023;-76
2023/01/26 01:09:36;;;;;;;70.27;36.57;;;;;;;;;;5196442;28;20036;-77
2023/01/26 01:12:07;;;;;;;69.97;36.90;;;;;;;;;;5197182;28;20018;-76
2023/01/26 01:14:38;;;;;;;65.97;35.63;;;;;;;;;;5197031;28;20033;-77
2023/01/26 01:17:09;;;;;;;69.00;37.23;;;;;;;;;;5197079;28;20069;-76
2023/01/26 01:19:40;;;;;;;64.90;34.63;;;;;;;;;;5197985;28;20070;-77
2023/01/26 01:22:12;;;;;;;64.80;36.57;;;;;;;;;;5203335;28;20037;-76
2023/01/26 01:24:43;;;;;;;65.23;36.67;;;;;;;;;;5211644;28;20030;-77
2023/01/26 01:27:14;;;;;;;66.23;36.70;;;;;;;;;;5202940;28;20071;-75
2023/01/26 01:29:45;;;;;;;63.80;35.87;;;;;;;;;;5196446;28;20049;-76
2023/01/26 01:32:16;;;;;;;65.63;35.17;;;;;;;;;;5196943;28;20061;-75
2023/01/26 01:34:48;;;;;;;62.37;35.47;;;;;;;;;;5196527;28;20065;-76
2023/01/26 01:37:19;;;;;;;65.07;35.77;;;;;;;;;;5195178;28;20019;-76
2023/01/26 01:39:51;;;;;;;65.77;36.37;;;;;;;;;;5196743;28;20082;-75
2023/01/26 01:42:22;;;;;;;58.93;34.07;;;;;;;;;;5196650;28;20022;-76
2023/01/26 01:45:12;;;;;;;57.83;32.80;;;;;;;;;;5195811;28;20014;-75
2023/01/26 01:47:43;;;;;;;67.10;38.50;;;;;;;;;;5196398;28;20138;-75
2023/01/26 01:50:15;;;;;;;65.30;36.07;;;;;;;;;;5196381;28;20117;-75
2023/01/26 01:52:47;;;;;;;63.17;35.53;;;;;;;;;;5195738;28;20042;-75
2023/01/26 01:55:19;;;;;;;63.10;33.30;;;;;;;;;;5196366;28;20482;-76
2023/01/26 01:57:52;;;;;;;64.77;34.47;;;;;;;;;;5195652;28;20461;-75
2023/01/26 02:00:24;;;;;;;61.70;34.10;;;;;;;;;;5196039;28;20018;-75
2023/01/26 02:03:10;;;;;;;58.53;33.47;;;;;;;;;;5196358;28;20046;-76
2023/01/26 02:05:55;;;;;;;60.07;34.90;;;;;;;;;;5195689;28;20110;-76
2023/01/26 02:08:29;;;;;;;61.03;34.33;;;;;;;;;;5195917;28;20019;-76
2023/01/26 02:11:03;;;;;;;57.23;32.53;;;;;;;;;;5209199;28;20052;-76
2023/01/26 02:13:35;;;;;;;65.10;36.57;;;;;;;;;;5206788;28;20454;-76
2023/01/26 02:16:06;;;;;;;60.47;33.60;;;;;;;;;;5196186;28;20019;-76
2023/01/26 02:18:37;;;;;;;58.63;34.00;;;;;;;;;;5195892;28;20194;-76
2023/01/26 02:21:10;;;;;;;59.27;34.57;;;;;;;;;;5195135;28;20022;-75
2023/01/26 02:23:56;;;;;;;62.97;35.50;;;;;;;;;;5195922;28;20031;-76
2023/01/26 02:26:30;;;;;;;54.57;32.50;;;;;;;;;;5195000;28;20018;-76
2023/01/26 02:29:02;;;;;;;62.00;33.17;;;;;;;;;;5195957;28;20026;-76
2023/01/26 02:31:33;;;;;;;58.77;34.13;;;;;;;;;;5195870;28;20026;-76
2023/01/26 02:34:05;;;;;;;59.67;33.07;;;;;;;;;;5195251;28;20067;-77
2023/01/26 02:36:36;;;;;;;54.90;31.23;;;;;;;;;;5195790;28;20029;-77
2023/01/26 02:39:22;;;;;;;52.47;29.83;;;;;;;;;;5195788;28;20585;-77
2023/01/26 02:44:43;;;;;;;56.73;32.03;;;;;;;;;;5196032;28;20105;-77
2023/01/26 02:47:16;;;;;;;56.27;32.50;;;;;;;;;;5194979;28;20022;-77
2023/01/26 02:49:49;;;;;;;55.83;30.77;;;;;;;;;;5197800;28;20022;-76
2023/01/26 02:52:21;;;;;;;54.60;30.60;;;;;;;;;;5199230;28;20386;-76
2023/01/26 02:57:43;;;;;;;54.10;30.00;;;;;;;;;;5199077;28;20117;-76
2023/01/26 03:00:28;;;;;;;55.10;31.63;;;;;;;;;;5199109;28;20101;-75
2023/01/26 03:03:00;;;;;;;50.70;30.03;;;;;;;;;;5198042;28;20042;-75
2023/01/26 03:05:32;;;;;;;55.50;32.37;;;;;;;;;;5198979;28;20469;-76
2023/01/26 03:08:05;;;;;;;52.57;29.67;;;;;;;;;;5198371;28;20065;-76
2023/01/26 03:10:36;;;;;;;49.80;28.37;;;;;;;;;;5198829;28;20021;-77
2023/01/26 03:13:07;;;;;;;53.83;30.93;;;;;;;;;;5198766;28;20030;-76
2023/01/26 03:15:53;;;;;;;48.80;28.87;;;;;;;;;;5198403;28;20038;-75
2023/01/26 03:29:44;;;;;;;50.70;29.13;;;;;;;;;;5198104;28;20030;-77
2023/01/26 03:32:16;;;;;;;49.20;28.80;;;;;;;;;;5198640;28;20102;-76
2023/01/26 03:34:47;;;;;;;47.43;26.73;;;;;;;;;;5198661;28;20033;-76
2023/01/26 03:37:21;;;;;;;47.10;27.63;;;;;;;;;;5197808;28;20413;-76
2023/01/26 03:56:52;;;;;;;48.57;27.03;;;;;;;;;;5197880;28;20027;-75
2023/01/26 03:59:36;;;;;;;50.50;28.20;;;;;;;;;;5196789;28;20378;-76
2023/01/26 04:10:39;;;;;;;42.87;24.40;;;;;;;;;;5197983;28;20026;-77
2023/01/26 04:21:40;;;;;;;47.70;25.77;;;;;;;;;;5198106;28;20469;-76
2023/01/26 04:24:14;;;;;;;45.07;24.33;;;;;;;;;;5197642;28;20030;-76
2023/01/26 04:26:45;;;;;;;42.00;23.53;;;;;;;;;;5197311;28;20046;-76
2023/01/26 04:29:16;;;;;;;39.60;22.13;;;;;;;;;;5197836;28;20054;-76
2023/01/26 04:31:47;;;;;;;39.07;22.20;;;;;;;;;;5197947;28;20030;-76
2023/01/26 04:34:19;;;;;;;33.70;19.17;;;;;;;;;;5196883;28;20074;-77
2023/01/26 04:36:50;;;;;;;36.20;20.13;;;;;;;;;;5197612;28;20025;-76
2023/01/26 04:39:21;;;;;;;35.63;20.43;;;;;;;;;;5197595;28;20393;-76
2023/01/26 04:41:52;;;;;;;32.57;18.57;;;;;;;;;;5197053;28;20023;-76
2023/01/26 04:44:23;;;;;;;32.13;18.80;;;;;;;;;;5197366;28;20037;-77
2023/01/26 04:46:54;;;;;;;29.27;16.73;;;;;;;;;;5196764;28;20015;-76
2023/01/26 04:49:26;;;;;;;28.43;16.47;;;;;;;;;;5197095;28;20431;-76
2023/01/26 04:51:57;;;;;;;27.50;16.10;;;;;;;;;;5197770;28;20457;-76
2023/01/26 04:54:28;;;;;;;27.43;16.90;;;;;;;;;;5196426;28;20018;-76
2023/01/26 04:56:59;;;;;;;29.70;16.97;;;;;;;;;;5197220;28;20018;-76
2023/01/26 04:59:30;;;;;;;28.77;16.57;;;;;;;;;;5197035;28;20038;-76
2023/01/26 05:02:01;;;;;;;26.60;15.67;;;;;;;;;;5196235;28;20042;-76
2023/01/26 05:04:33;;;;;;;27.03;16.40;;;;;;;;;;5197313;28;20110;-76
2023/01/26 05:07:04;;;;;;;29.33;17.33;;;;;;;;;;5197169;28;20025;-75
2023/01/26 05:09:35;;;;;;;27.33;16.60;;;;;;;;;;5196389;28;20033;-76
2023/01/26 05:14:56;;;;;;;27.67;15.93;;;;;;;;;;5196813;28;20030;-75
2023/01/26 05:17:27;;;;;;;28.27;16.43;;;;;;;;;;5196413;28;20022;-75
2023/01/26 05:19:58;;;;;;;28.90;16.63;;;;;;;;;;5197235;28;20511;-76
2023/01/26 05:22:30;;;;;;;28.77;17.40;;;;;;;;;;5195888;28;20018;-75
2023/01/26 05:25:01;;;;;;;27.07;15.83;;;;;;;;;;5196947;28;20030;-76
2023/01/26 05:27:32;;;;;;;27.20;15.87;;;;;;;;;;5196606;28;20022;-75
2023/01/26 05:30:03;;;;;;;25.30;14.63;;;;;;;;;;5195919;28;20536;-76
2023/01/26 05:32:35;;;;;;;28.40;16.57;;;;;;;;;;5184942;28;20389;-75
2023/01/26 05:35:06;;;;;;;29.80;16.83;;;;;;;;;;5196431;28;20048;-75
2023/01/26 05:37:38;;;;;;;25.47;15.20;;;;;;;;;;5195546;28;20105;-75
2023/01/26 05:40:09;;;;;;;24.93;14.57;;;;;;;;;;5196449;28;20030;-75
2023/01/26 05:42:41;;;;;;;27.40;16.43;;;;;;;;;;5196380;28;20019;-75
2023/01/26 05:45:12;;;;;;;26.23;15.17;;;;;;;;;;5195909;28;20064;-76
2023/01/26 05:47:44;;;;;;;24.93;14.23;;;;;;;;;;5195585;28;20030;-76
2023/01/26 05:50:15;;;;;;;26.70;16.20;;;;;;;;;;5195233;28;20466;-76
2023/01/26 05:52:47;;;;;;;24.60;13.70;;;;;;;;;;5195854;28;20054;-76
2023/01/26 05:55:18;;;;;;;24.37;14.43;;;;;;;;;;5196038;28;20022;-76
2023/01/26 05:57:49;;;;;;;26.30;14.70;;;;;;;;;;5195611;28;20373;-76
2023/01/26 06:00:20;;;;;;;24.63;14.70;;;;;;;;;;5195977;28;20046;-76
2023/01/26 06:02:51;;;;;;;22.50;13.43;;;;;;;;;;5195430;28;20129;-76
2023/01/26 06:05:23;;;;;;;25.40;14.80;;;;;;;;;;5195159;28;20106;-76
2023/01/26 06:07:54;;;;;;;23.00;13.40;;;;;;;;;;5195562;28;20113;-77
2023/01/26 06:10:25;;;;;;;22.80;13.27;;;;;;;;;;5195609;28;20382;-76
2023/01/26 06:12:58;;;;;;;25.63;14.10;;;;;;;;;;5195798;28;20085;-77
2023/01/26 06:15:29;;;;;;;26.17;14.17;;;;;;;;;;5195692;28;20054;-76
2023/01/26 06:18:01;;;;;;;22.23;13.03;;;;;;;;;;5195233;28;20535;-76
2023/01/26 06:20:32;;;;;;;21.93;12.97;;;;;;;;;;5195962;28;20547;-76
2023/01/26 06:23:03;;;;;;;24.13;14.00;;;;;;;;;;5197294;28;20023;-76
2023/01/26 06:25:34;;;;;;;23.07;13.23;;;;;;;;;;5199065;28;20101;-75
2023/01/26 06:28:05;;;;;;;21.20;12.90;;;;;;;;;;5199619;28;20087;-76
2023/01/26 06:30:37;;;;;;;20.53;12.13;;;;;;;;;;5199515;28;20018;-77
2023/01/26 06:33:08;;;;;;;25.33;14.20;;;;;;;;;;5198562;28;20083;-77
2023/01/26 06:35:39;;;;;;;22.07;12.40;;;;;;;;;;5199475;28;20058;-77
2023/01/26 06:38:10;;;;;;;23.20;13.53;;;;;;;;;;5199490;28;20466;-77
2023/01/26 06:40:41;;;;;;;22.73;13.90;;;;;;;;;;5198736;28;20030;-77
2023/01/26 06:43:12;;;;;;;23.23;13.17;;;;;;;;;;5199160;28;20124;-76
2023/01/26 06:45:45;;;;;;;19.97;11.47;;;;;;;;;;5199245;28;20033;-76
2023/01/26 06:48:17;;;;;;;21.30;12.07;;;;;;;;;;5198417;28;20049;-76
2023/01/26 06:50:49;;;;;;;21.57;13.00;;;;;;;;;;5199460;28;20057;-76
2023/01/26 06:53:24;;;;;;;23.43;12.83;;;;;;;;;;5198454;28;20056;-76
2023/01/26 06:55:55;;;;;;;24.03;12.70;;;;;;;;;;5199425;28;20505;-75
2023/01/26 06:58:26;;;;;;;21.37;12.37;;;;;;;;;;5198795;28;20117;-76
2023/01/26 07:00:58;;;;;;;22.27;12.33;;;;;;;;;;5198676;28;20022;-75
2023/01/26 07:03:30;;;;;;;21.37;12.47;;;;;;;;;;5198486;28;20065;-75
2023/01/26 07:06:01;;;;;;;23.27;12.70;;;;;;;;;;5198912;28;20019;-76
2023/01/26 07:08:32;;;;;;;22.30;12.37;;;;;;;;;;5198094;28;20399;-76
2023/01/26 07:11:04;;;;;;;23.07;13.03;;;;;;;;;;5199104;28;20022;-76
2023/01/26 07:13:35;;;;;;;22.17;12.43;;;;;;;;;;5198949;28;20034;-76
2023/01/26 07:16:07;;;;;;;24.37;12.77;;;;;;;;;;5198223;28;20027;-76
2023/01/26 07:18:38;;;;;;;22.33;13.03;;;;;;;;;;5198650;28;20045;-76
2023/01/26 07:21:11;;;;;;;22.63;12.53;;;;;;;;;;5198293;28;20392;-76
2023/01/26 07:23:43;;;;;;;21.50;11.90;;;;;;;;;;5198884;28;20053;-77
2023/01/26 07:26:15;;;;;;;21.23;12.87;;;;;;;;;;5198722;28;20019;-76
2023/01/26 07:28:46;;;;;;;25.07;14.17;;;;;;;;;;5197833;28;20019;-75
2023/01/26 07:31:17;;;;;;;22.30;13.13;;;;;;;;;;5198435;28;20022;-74
2023/01/26 07:33:48;;;;;;;22.93;12.93;;;;;;;;;;5198179;28;20018;-75
2023/01/26 07:36:20;;;;;;;23.93;13.40;;;;;;;;;;5196913;28;20023;-75
2023/01/26 07:38:51;;;;;;;22.57;13.37;;;;;;;;;;5198408;28;20477;-75
2023/01/26 07:41:23;;;;;;;23.77;14.00;;;;;;;;;;5198211;28;20022;-76
2023/01/26 07:43:54;;;;;;;21.03;11.87;;;;;;;;;;5197727;28;20010;-76
2023/01/26 07:46:25;;;;;;;22.63;12.90;;;;;;;;;;5197966;28;20602;-76
2023/01/26 07:48:57;;;;;;;25.23;13.07;;;;;;;;;;5198760;28;20026;-76
2023/01/26 07:51:28;;;;;;;22.90;12.80;;;;;;;;;;5197015;28;20023;-76
2023/01/26 07:53:59;;;;;;;23.67;13.00;;;;;;;;;;5198343;28;20026;-76
2023/01/26 07:56:30;;;;;;;22.67;12.17;;;;;;;;;;5197346;28;20495;-75
2023/01/26 07:59:02;;;;;;;22.87;12.30;;;;;;;;;;5197786;28;20427;-75
2023/01/26 08:01:33;;;;;;;22.17;12.17;;;;;;;;;;5197973;28;20369;-75
2023/01/26 08:04:04;;;;;;;23.63;12.73;;;;;;;;;;5197352;28;20058;-76
2023/01/26 08:06:36;;;;;;;24.40;13.87;;;;;;;;;;5197869;28;20049;-76
2023/01/26 08:09:07;;;;;;;23.60;12.50;;;;;;;;;;5197790;28;20026;-76
2023/01/26 08:11:38;;;;;;;26.73;13.67;;;;;;;;;;5197134;28;20071;-76
2023/01/26 08:14:09;;;;;;;26.10;13.83;;;;;;;;;;5197760;28;20037;-77
2023/01/26 08:16:40;;;;;;;25.37;13.87;;;;;;;;;;5197945;28;20014;-76
2023/01/26 08:19:12;;;;;;;24.70;13.53;;;;;;;;;;5196632;28;20027;-76
2023/01/26 08:21:43;;;;;;;24.57;13.10;;;;;;;;;;5197949;28;20041;-75
2023/01/26 08:24:14;;;;;;;28.70;14.43;;;;;;;;;;5197758;28;20059;-76
2023/01/26 08:26:45;;;;;;;26.56;14.04;;;;;;;;;;5197179;28;20030;-77
2023/01/26 08:29:17;;;;;;;23.67;13.50;;;;;;;;;;5197662;28;20026;-75
2023/01/26 08:31:48;;;;;;;26.03;13.70;;;;;;;;;;5196683;28;20359;-74
2023/01/26 08:34:21;;;;;;;25.53;14.07;;;;;;;;;;5197793;28;20027;-75
2023/01/26 08:36:52;;;;;;;26.23;13.23;;;;;;;;;;5197523;28;20022;-76
2023/01/26 08:39:23;;;;;;;26.90;13.90;;;;;;;;;;5196406;28;20030;-75
2023/01/26 08:41:54;;;;;;;27.97;14.83;;;;;;;;;;5197557;28;20407;-75
2023/01/26 08:44:25;;;;;;;28.53;14.07;;;;;;;;;;5197110;28;20481;-76
2023/01/26 08:46:57;;;;;;;25.60;13.72;;;;;;;;;;5197028;28;20101;-76
2023/01/26 08:49:28;;;;;;;28.03;15.07;;;;;;;;;;5197303;28;20026;-78
2023/01/26 08:51:59;;;;;;;28.40;14.73;;;;;;;;;;5197393;28;20113;-77
2023/01/26 08:54:30;;;;;;;28.50;16.00;;;;;;;;;;5196446;28;20038;-77
2023/01/26 08:57:01;;;;;;;27.60;14.60;;;;;;;;;;5197100;28;20469;-74
2023/01/26 08:59:32;;;;;;;26.10;14.67;;;;;;;;;;5197162;28;20382;-76
2023/01/26 09:02:04;;;;;;;26.83;15.00;;;;;;;;;;5196469;28;20050;-77
2023/01/26 09:04:35;;;;;;;26.27;14.57;;;;;;;;;;5197130;28;20061;-77
2023/01/26 09:07:06;;;;;;;27.33;14.80;;;;;;;;;;5196175;28;20014;-77
2023/01/26 09:09:37;;;;;;;26.73;15.10;;;;;;;;;;5197225;28;20018;-76
2023/01/26 09:12:08;;;;;;;26.57;13.80;;;;;;;;;;5196817;28;20540;-75
2023/01/26 09:14:40;;;;;;;26.20;14.53;;;;;;;;;;5194574;28;20402;-74
2023/01/26 09:17:11;;;;;;;29.57;14.10;;;;;;;;;;5175981;28;20034;-75
2023/01/26 09:19:43;;;;;;;26.73;13.80;;;;;;;;;;5166644;28;20046;-75
2023/01/26 09:22:14;;;;;;;28.98;14.63;;;;;;;;;;5175469;28;20448;-75
2023/01/26 09:24:45;;;;;;;26.23;14.23;;;;;;;;;;5176470;28;20027;-75
2023/01/26 09:27:16;;;;;;;27.08;14.20;;;;;;;;;;5176086;28;20080;-75
2023/01/26 09:29:47;;;;;;;31.43;16.10;;;;;;;;;;5175565;28;20079;-75
2023/01/26 09:32:18;;;;;;;31.13;15.97;;;;;;;;;;5175558;28;20035;-75
2023/01/26 09:34:50;;;;;;;29.90;14.80;;;;;;;;;;5175038;28;20017;-75
2023/01/26 09:37:21;;;;;;;32.43;15.23;;;;;;;;;;5176153;28;20080;-75
2023/01/26 09:39:52;;;;;;;28.40;14.63;;;;;;;;;;5175912;28;20091;-75
2023/01/26 09:42:31;;;;;;;30.43;14.97;;;;;;;;;;5174799;28;20390;-75
2023/01/26 09:45:05;;;;;;;29.58;15.85;;;;;;;;;;5175746;28;20065;-76
2023/01/26 09:47:36;;;;;;;31.07;15.53;;;;;;;;;;5175932;28;20031;-75
2023/01/26 09:50:10;;;;;;;29.53;14.67;;;;;;;;;;5174285;28;20072;-75
2023/01/26 09:52:47;;;;;;;29.60;14.68;;;;;;;;;;5175650;28;20480;-76
2023/01/26 09:55:19;;;;;;;34.23;16.10;;;;;;;;;;5175995;28;20031;-75
2023/01/26 09:57:54;;;;;;;31.50;15.20;;;;;;;;;;5174486;28;20106;-74
2023/01/26 10:00:29;;;;;;;33.33;16.07;;;;;;;;;;5175262;28;20129;-74
2023/01/26 10:03:00;;;;;;;28.57;14.53;;;;;;;;;;5174031;28;20131;-74
2023/01/26 10:05:39;;;;;;;25.90;14.70;;;;;;;;;;5179179;28;20110;-74
2023/01/26 10:08:12;;;;;;;27.92;14.95;;;;;;;;;;5188006;28;20022;-74
2023/01/26 10:10:48;;;;;;;29.43;14.70;;;;;;;;;;5188786;28;20026;-74
2023/01/26 10:13:20;;;;;;;26.47;14.70;;;;;;;;;;5176486;28;20552;-74
2023/01/26 10:16:03;;;;;;;30.90;15.75;;;;;;;;;;5175720;28;20023;-74
2023/01/26 10:18:53;;;;;;;32.13;16.17;;;;;;;;;;5190408;28;20030;-74
2023/01/26 10:21:24;;;;;;;;;;;;;;;;;;5184428;28;20026;-75
2023/01/26 10:23:57;;;;;;;31.43;14.87;;;;;;;;;;5186001;28;20321;-75
2023/01/26 10:26:30;;;;;;;29.95;14.13;;;;;;;;;;5173982;28;20308;-75
2023/01/26 10:29:01;;;;;;;36.03;16.40;;;;;;;;;;5173977;28;20041;-75
2023/01/26 10:31:32;;;;;;;30.35;15.65;;;;;;;;;;5174631;28;20027;-75
2023/01/26 10:34:07;;;;;;;29.05;14.20;;;;;;;;;;5175026;28;20446;-75
2023/01/26 10:36:38;;;;;;;33.93;15.77;;;;;;;;;;5174644;28;20084;-74
2023/01/26 10:39:11;;;;;;;32.17;15.88;;;;;;;;;;5174493;28;20038;-74
2023/01/26 10:42:02;;;;;;;33.03;16.83;;;;;;;;;;5175158;28;20027;-74
2023/01/26 10:44:35;;;;;;;32.30;17.13;;;;;;;;;;5175024;28;20041;-74
2023/01/26 10:47:12;;;;;;;39.97;17.38;;;;;;;;;;5174312;28;20035;-74
2023/01/26 10:49:43;;;;;;;35.40;16.55;;;;;;;;;;5175251;28;20034;-73
2023/01/26 10:52:20;;;;;;;33.50;16.58;;;;;;;;;;5174094;28;20436;-74
2023/01/26 10:55:08;;;;;;;32.88;15.82;;;;;;;;;;5175220;28;20039;-74
2023/01/26 10:57:40;;;;;;;35.97;17.20;;;;;;;;;;5174919;28;20031;-74
2023/01/26 11:00:18;;;;;;;33.45;15.77;;;;;;;;;;5174519;28;20389;-73
2023/01/26 11:02:51;;;;;;;35.72;17.38;;;;;;;;;;5174806;28;20051;-73
2023/01/26 11:05:23;;;;;;;32.40;15.23;;;;;;;;;;5175237;28;20400;-74
2023/01/26 11:07:59;;;;;;;34.58;16.80;;;;;;;;;;5174592;28;20011;-73
2023/01/26 11:10:30;;;;;;;32.15;16.83;;;;;;;;;;5176867;28;20027;-73
2023/01/26 11:13:12;;;;;;;32.00;15.57;;;;;;;;;;5178719;28;20027;-74
2023/01/26 11:15:46;;;;;;;32.00;15.10;;;;;;;;;;5177160;28;20122;-74
2023/01/26 11:18:27;;;;;;;37.72;16.05;;;;;;;;;;5178305;28;20421;-74
2023/01/26 11:21:15;;;;;;;35.65;18.17;;;;;;;;;;5178193;28;20516;-74
2023/01/26 11:23:53;;;;;;;43.70;21.13;;;;;;;;;;5177994;28;20019;-74
2023/01/26 11:26:42;;;;;;;37.78;18.17;;;;;;;;;;5178001;28;20035;-74
2023/01/26 11:29:13;;;;;;;39.10;16.75;;;;;;;;;;5177959;28;20026;-74
2023/01/26 11:31:58;;;;;;;39.30;17.60;;;;;;;;;;5178193;28;20042;-75
2023/01/26 11:34:43;;;;;;;34.25;17.70;;;;;;;;;;5177203;28;20088;-74
2023/01/26 11:37:35;;;;;;;37.55;16.67;;;;;;;;;;5178097;28;20477;-73
2023/01/26 11:40:25;;;;;;;33.17;16.67;;;;;;;;;;5177587;28;20073;-74
2023/01/26 11:43:14;;;;;;;34.10;15.65;;;;;;;;;;5177690;28;20101;-73
2023/01/26 11:45:57;;;;;;;34.42;15.85;;;;;;;;;;5177908;28;20035;-73
2023/01/26 11:48:28;;;;;;;32.38;15.40;;;;;;;;;;5176686;28;20031;-73
2023/01/26 11:51:08;;;;;;;34.30;15.82;;;;;;;;;;5177954;28;20444;-72
2023/01/26 11:53:54;;;;;;;33.65;15.30;;;;;;;;;;5193242;28;20420;-72
2023/01/26 11:56:44;;;;;;;26.45;12.73;;;;;;;;;;5196859;28;20022;-75
2023/01/26 11:59:26;;;;;;;31.73;14.85;;;;;;;;;;5197961;28;20521;-73
2023/01/26 12:02:00;;;;;;;25.23;14.07;;;;;;;;;;5198207;28;20066;-74
2023/01/26 12:04:33;;;;;;;29.70;14.00;;;;;;;;;;5196977;28;20033;-74
2023/01/26 12:07:26;;;;;;;28.67;13.43;;;;;;;;;;5197754;28;20022;-74
2023/01/26 12:09:59;;;;;;;32.83;15.40;;;;;;;;;;5197245;28;20026;-74
2023/01/26 12:12:36;;;;;;;33.78;14.20;;;;;;;;;;5197711;28;20039;-74
2023/01/26 12:15:14;;;;;;;32.03;15.77;;;;;;;;;;5197737;28;20029;-74
2023/01/26 12:17:46;;;;;;;28.90;13.45;;;;;;;;;;5196933;28;20029;-74
2023/01/26 12:20:22;;;;;;;29.22;12.76;;;;;;;;;;5197454;28;20113;-74
2023/01/26 12:23:05;;;;;;;23.45;11.82;;;;;;;;;;5197690;28;20106;-75
2023/01/26 12:25:38;;;;;;;31.10;12.23;;;;;;;;;;5197205;28;20053;-74
2023/01/26 12:28:13;;;;;;;26.83;9.77;;;;;;;;;;5197606;28;20019;-74
2023/01/26 12:31:02;;;;;;;19.20;7.65;;;;;;;;;;5196859;28;20034;-74
2023/01/26 12:33:34;;;;;;;23.38;6.30;;;;;;;;;;5197334;28;20026;-74
2023/01/26 12:36:15;;;;;;;28.92;7.50;;;;;;;;;;5197637;28;20019;-75
2023/01/26 12:38:58;;;;;;;19.73;5.00;;;;;;;;;;5196736;28;20042;-73
2023/01/26 12:41:57;;;;;;;22.25;6.63;;;;;;;;;;5196877;28;20069;-74
2023/01/26 12:44:35;;;;;;;22.45;6.68;;;;;;;;;;5196729;28;20077;-71
2023/01/26 12:47:16;;;;;;;25.60;8.52;;;;;;;;;;5196249;28;20040;-73
2023/01/26 12:49:59;;;;;;;34.33;7.72;;;;;;;;;;5197034;28;20466;-74
2023/01/26 12:52:34;;;;;;;23.42;7.60;;;;;;;;;;5196566;28;20032;-74
2023/01/26 12:55:14;;;;;;;21.40;6.35;;;;;;;;;;5197240;28;20109;-74
2023/01/26 12:57:49;;;;;;;18.05;4.60;;;;;;;;;;5196818;28;20023;-73
2023/01/26 13:00:22;;;;;;;17.85;4.43;;;;;;;;;;5195962;28;20354;-73
2023/01/26 13:02:57;;;;;;;21.08;4.60;;;;;;;;;;5196501;28;20052;-72
2023/01/26 13:05:30;;;;;;;17.63;5.05;;;;;;;;;;5196875;28;20072;-73
2023/01/26 13:08:21;;;;;;;21.70;5.60;;;;;;;;;;5196009;28;20049;-73
2023/01/26 13:10:52;;;;;;;20.27;7.18;;;;;;;;;;5197003;28;20030;-73
2023/01/26 13:13:25;;;;;;;16.40;5.30;;;;;;;;;;5196116;28;20079;-73
2023/01/26 13:16:28;;;;;;;16.27;3.75;;;;;;;;;;5197221;28;20018;-73
2023/01/26 13:19:00;;;;;;;16.17;3.95;;;;;;;;;;5196710;28;20393;-73
2023/01/26 13:21:37;;;;;;;19.38;3.15;;;;;;;;;;5195890;28;20028;-73
2023/01/26 13:24:14;;;;;;;15.32;3.10;;;;;;;;;;5196323;28;20026;-73
2023/01/26 13:26:46;;;;;;;26.45;4.05;;;;;;;;;;5196553;28;20034;-73
2023/01/26 13:29:23;;;;;;;19.75;3.75;;;;;;;;;;5195505;28;20535;-72
2023/01/26 13:31:56;;;;;;;17.83;3.78;;;;;;;;;;5195677;28;20034;-73
2023/01/26 13:34:32;;;;;;;14.65;2.75;;;;;;;;;;5195190;28;20056;-72
2023/01/26 13:37:22;;;;;;;16.15;3.38;;;;;;;;;;5196570;28;20027;-72
2023/01/26 13:39:59;;;;;;;18.20;1.85;;;;;;;;;;5196216;28;20042;-72
2023/01/26 13:42:49;;;;;;;12.10;2.33;;;;;;;;;;5195578;28;20050;-73
2023/01/26 13:45:28;;;;;;;16.95;2.70;;;;;;;;;;5196195;28;20023;-72
2023/01/26 13:48:00;;;;;;;14.65;1.90;;;;;;;;;;5196536;28;20018;-72
2023/01/26 13:50:33;;;;;;;15.27;1.88;;;;;;;;;;5195747;28;20114;-72
2023/01/26 13:53:23;;;;;;;17.48;2.58;;;;;;;;;;5196448;28;20075;-72
2023/01/26 13:55:57;;;;;;;14.35;2.15;;;;;;;;;;5195626;28;20026;-72
2023/01/26 13:58:28;;;;;;;15.18;1.45;;;;;;;;;;5196016;28;20030;-73
2023/01/26 14:01:10;;;;;;;9.02;1.23;;;;;;;;;;5196109;28;20019;-72
2023/01/26 14:03:41;;;;;;;7.25;0.95;;;;;;;;;;5195173;28;20126;-71
2023/01/26 14:06:15;;;;;;;11.48;1.10;;;;;;;;;;5196256;28;20101;-72
2023/01/26 14:08:56;;;;;;;10.73;1.20;;;;;;;;;;5196139;28;20461;-72
2023/01/26 14:11:28;;;;;;;7.60;1.02;;;;;;;;;;5194954;28;20019;-73
2023/01/26 14:14:00;;;;;;;6.45;0.77;;;;;;;;;;5196292;28;20072;-72
2023/01/26 14:16:33;;;;;;;10.50;1.48;;;;;;;;;;5195396;28;20061;-73
2023/01/26 14:19:15;;;;;;;11.40;2.15;;;;;;;;;;5195937;28;20053;-72
2023/01/26 14:21:49;;;;;;;10.43;1.27;;;;;;;;;;5195676;28;20030;-72
2023/01/26 14:24:34;;;;;;;13.55;1.85;;;;;;;;;;5195140;28;20031;-72
2023/01/26 14:27:05;;;;;;;7.95;0.90;;;;;;;;;;5195922;28;20031;-72
2023/01/26 14:29:37;;;;;;;11.85;1.05;;;;;;;;;;5195762;28;20026;-72
2023/01/26 14:32:14;;;;;;;10.30;0.70;;;;;;;;;;5194956;28;20018;-74
2023/01/26 14:34:52;;;;;;;7.38;0.70;;;;;;;;;;5195834;28;20014;-71
2023/01/26 14:37:24;;;;;;;10.43;1.13;;;;;;;;;;5194994;28;20068;-72
2023/01/26 14:40:08;;;;;;;10.88;0.85;;;;;;;;;;5195716;28;20034;-71
2023/01/26 14:42:40;;;;;;;12.05;1.15;;;;;;;;;;5195296;28;20014;-72
2023/01/26 14:45:12;;;;;;;7.78;0.80;;;;;;;;;;5197698;28;20380;-72
2023/01/26 14:47:44;;;;;;;8.43;0.70;;;;;;;;;;5199248;28;20014;-71
2023/01/26 14:50:22;;;;;;;11.73;1.20;;;;;;;;;;5199161;28;20033;-72
2023/01/26 14:52:53;;;;;;;7.70;0.68;;;;;;;;;;5198405;28;20072;-71
2023/01/26 14:55:26;;;;;;;10.52;0.80;;;;;;;;;;5198685;28;20022;-73
2023/01/26 14:57:59;;;;;;;7.70;0.93;;;;;;;;;;5199182;28;20101;-71
2023/01/26 15:00:35;;;;;;;4.40;0.57;;;;;;;;;;5198448;28;20026;-71
2023/01/26 15:03:11;;;;;;;7.57;0.60;;;;;;;;;;5198835;28;20046;-72
2023/01/26 15:05:43;;;;;;;8.10;0.73;;;;;;;;;;5198038;28;20030;-71
2023/01/26 15:08:19;;;;;;;9.05;0.70;;;;;;;;;;5199136;28;20022;-71
2023/01/26 15:10:54;;;;;;;7.28;0.90;;;;;;;;;;5198607;28;20101;-71
2023/01/26 15:13:29;;;;;;;7.90;0.50;;;;;;;;;;5197770;28;20046;-71
2023/01/26 15:16:06;;;;;;;4.57;0.60;;;;;;;;;;5198787;28;20023;-72
2023/01/26 15:18:38;;;;;;;6.32;0.70;;;;;;;;;;5198755;28;20030;-72
2023/01/26 15:21:13;;;;;;;9.05;1.10;;;;;;;;;;5198012;28;20068;-71
2023/01/26 15:23:48;;;;;;;9.95;1.20;;;;;;;;;;5198481;28;20042;-72
2023/01/26 15:26:26;;;;;;;5.63;0.90;;;;;;;;;;5198480;28;20374;-72
2023/01/26 15:28:59;;;;;;;6.30;1.35;;;;;;;;;;5198544;28;20134;-72
2023/01/26 15:31:34;;;;;;;5.13;0.50;;;;;;;;;;5198339;28;20015;-72
2023/01/26 15:34:26;;;;;;;5.28;0.43;;;;;;;;;;5197602;28;20026;-72
2023/01/26 15:36:57;;;;;;;5.20;0.50;;;;;;;;;;5198321;28;20034;-71
2023/01/26 15:39:29;;;;;;;6.50;0.40;;;;;;;;;;5198012;28;20432;-72
2023/01/26 15:42:09;;;;;;;7.63;1.10;;;;;;;;;;5197678;28;20015;-72
2023/01/26 15:44:40;;;;;;;5.43;0.63;;;;;;;;;;5197457;28;20106;-71
2023/01/26 15:47:12;;;;;;;4.80;0.50;;;;;;;;;;5198014;28;20553;-72
2023/01/26 15:49:43;;;;;;;6.25;0.80;;;;;;;;;;5197550;28;20109;-72
2023/01/26 15:52:16;;;;;;;7.25;1.48;;;;;;;;;;5198184;28;20026;-72
2023/01/26 15:54:47;;;;;;;8.90;0.88;;;;;;;;;;5197413;28;20458;-72
2023/01/26 15:57:18;;;;;;;9.20;1.10;;;;;;;;;;5197350;28;20031;-72